createdAt,value
2022-09-13T00:01:04.065Z,100.00
2022-09-13T00:03:32.270Z,100.00
2022-09-13T00:06:01.630Z,100.00
2022-09-13T00:08:29.505Z,100.00
2022-09-13T00:10:57.186Z,100.00
2022-09-13T00:13:26.262Z,100.00
2022-09-13T00:15:53.958Z,100.00
2022-09-13T00:18:21.671Z,100.00
2022-09-13T00:20:49.406Z,100.00
2022-09-13T00:23:17.135Z,100.00
2022-09-13T00:25:44.807Z,100.00
2022-09-13T00:28:12.586Z,100.00
2022-09-13T00:30:41.622Z,100.00
2022-09-13T00:33:09.379Z,100.00
2022-09-13T00:35:37.067Z,100.00
2022-09-13T00:38:04.905Z,100.00
2022-09-13T00:40:32.585Z,100.00
2022-09-13T00:43:00.242Z,100.00
2022-09-13T00:45:28.065Z,100.00
2022-09-13T00:48:02.150Z,100.00
2022-09-13T00:50:36.114Z,100.00
2022-09-13T00:53:09.032Z,100.00
2022-09-13T00:55:42.488Z,100.00
2022-09-13T00:58:14.355Z,100.00
2022-09-13T01:00:42.319Z,100.00
2022-09-13T01:03:15.022Z,100.00
2022-09-13T01:05:47.131Z,100.00
2022-09-13T01:08:22.769Z,100.00
2022-09-13T01:10:52.910Z,100.00
2022-09-13T01:13:23.673Z,100.00
2022-09-13T01:15:51.945Z,100.00
2022-09-13T01:18:21.501Z,100.00
2022-09-13T01:21:30.637Z,100.00
2022-09-13T01:24:29.891Z,100.00
2022-09-13T01:27:20.639Z,100.00
2022-09-13T01:30:20.812Z,100.00
2022-09-13T01:33:07.512Z,100.00
2022-09-13T01:35:49.569Z,100.00
2022-09-13T01:38:37.689Z,100.00
2022-09-13T01:41:20.062Z,100.00
2022-09-13T01:43:53.791Z,100.00
2022-09-13T01:46:30.119Z,100.00
2022-09-13T01:49:04.245Z,100.00
2022-09-13T01:51:36.155Z,100.00
2022-09-13T01:54:14.686Z,100.00
2022-09-13T01:56:47.134Z,100.00
2022-09-13T01:59:20.556Z,100.00
2022-09-13T02:01:56.747Z,100.00
2022-09-13T02:04:28.290Z,100.00
2022-09-13T02:07:04.151Z,100.00
2022-09-13T02:09:36.227Z,100.00
2022-09-13T02:12:08.111Z,100.00
2022-09-13T02:14:39.196Z,100.00
2022-09-13T02:17:13.717Z,100.00
2022-09-13T02:19:48.317Z,100.00
2022-09-13T02:22:21.020Z,100.00
2022-09-13T02:24:55.733Z,100.00
2022-09-13T02:27:27.217Z,100.00
2022-09-13T02:29:59.695Z,100.00
2022-09-13T02:32:33.735Z,100.00
2022-09-13T02:35:06.371Z,100.00
2022-09-13T02:37:37.683Z,100.00
2022-09-13T02:40:09.374Z,100.00
2022-09-13T02:42:44.224Z,100.00
2022-09-13T02:45:14.450Z,100.00
2022-09-13T02:47:48.558Z,100.00
2022-09-13T02:50:33.872Z,100.00
2022-09-13T02:53:06.858Z,100.00
2022-09-13T02:55:45.915Z,100.00
2022-09-13T02:58:24.891Z,100.00
2022-09-13T03:00:55.143Z,100.00
2022-09-13T03:03:25.362Z,100.00
2022-09-13T03:05:54.398Z,100.00
2022-09-13T03:08:23.297Z,100.00
2022-09-13T03:11:02.506Z,100.00
2022-09-13T03:13:41.191Z,100.00
2022-09-13T03:16:39.642Z,100.00
2022-09-13T03:19:26.577Z,100.00
2022-09-13T03:22:08.109Z,100.00
2022-09-13T03:24:51.026Z,100.00
2022-09-13T03:27:29.375Z,100.00
2022-09-13T03:30:03.884Z,100.00
2022-09-13T03:32:38.870Z,100.00
2022-09-13T03:35:19.347Z,100.00
2022-09-13T03:37:56.869Z,100.00
2022-09-13T03:40:36.490Z,100.00
2022-09-13T03:43:11.868Z,100.00
2022-09-13T03:45:43.969Z,100.00
2022-09-13T03:48:13.001Z,100.00
2022-09-13T03:50:43.452Z,100.00
2022-09-13T03:53:13.198Z,100.00
2022-09-13T03:55:43.056Z,100.00
2022-09-13T03:58:13.566Z,100.00
2022-09-13T04:00:41.504Z,100.00
2022-09-13T04:03:10.424Z,100.00
2022-09-13T04:05:39.056Z,100.00
2022-09-13T04:08:09.050Z,100.00
2022-09-13T04:10:37.790Z,100.00
2022-09-13T04:13:06.260Z,100.00
2022-09-13T04:15:34.120Z,100.00
2022-09-13T04:18:02.050Z,100.00
2022-09-13T04:20:29.822Z,100.00
2022-09-13T04:22:58.486Z,100.00
2022-09-13T04:25:27.717Z,100.00
2022-09-13T04:27:55.994Z,100.00
2022-09-13T04:30:24.002Z,100.00
2022-09-13T04:32:51.668Z,100.00
2022-09-13T04:35:19.879Z,100.00
2022-09-13T04:37:47.607Z,100.00
2022-09-13T04:40:15.524Z,100.00
2022-09-13T04:42:46.061Z,100.00
2022-09-13T04:45:14.101Z,100.00
2022-09-13T04:47:41.878Z,100.00
2022-09-13T04:50:09.885Z,100.00
2022-09-13T04:52:37.599Z,100.00
2022-09-13T04:55:05.996Z,100.00
2022-09-13T04:57:34.105Z,100.00
2022-09-13T05:00:03.882Z,100.00
2022-09-13T05:02:31.635Z,100.00
2022-09-13T05:04:59.519Z,100.00
2022-09-13T05:07:27.274Z,100.00
2022-09-13T05:09:55.028Z,100.00
2022-09-13T05:12:22.693Z,100.00
2022-09-13T05:14:50.377Z,100.00
2022-09-13T05:17:20.579Z,100.00
2022-09-13T05:19:49.364Z,100.00
2022-09-13T05:22:17.059Z,100.00
2022-09-13T05:24:45.119Z,100.00
2022-09-13T05:27:12.857Z,100.00
2022-09-13T05:29:40.601Z,100.00
2022-09-13T05:32:08.324Z,100.00
2022-09-13T05:34:37.414Z,100.00
2022-09-13T05:37:05.548Z,100.00
2022-09-13T05:39:54.026Z,100.00
2022-09-13T05:42:20.981Z,100.00
2022-09-13T05:44:48.719Z,100.00
2022-09-13T05:47:16.892Z,100.00
2022-09-13T05:50:08.869Z,100.00
2022-09-13T05:52:33.975Z,100.00
2022-09-13T05:55:01.725Z,100.00
2022-09-13T05:57:29.458Z,100.00
2022-09-13T05:59:57.112Z,100.00
2022-09-13T06:02:24.984Z,100.00
2022-09-13T06:04:54.185Z,100.00
2022-09-13T06:07:21.880Z,100.00
2022-09-13T06:09:49.609Z,100.00
2022-09-13T06:12:17.283Z,100.00
2022-09-13T06:14:44.974Z,100.00
2022-09-13T06:17:12.678Z,100.00
2022-09-13T06:19:40.844Z,100.00
2022-09-13T06:22:09.915Z,100.00
2022-09-13T06:24:38.328Z,100.00
2022-09-13T06:27:06.508Z,100.00
2022-09-13T06:29:34.275Z,100.00
2022-09-13T06:32:01.994Z,100.00
2022-09-13T06:34:31.446Z,100.00
2022-09-13T06:36:59.333Z,100.00
2022-09-13T06:39:29.089Z,100.00
2022-09-13T06:41:56.746Z,100.00
2022-09-13T06:44:24.556Z,100.00
2022-09-13T06:46:52.415Z,100.00
2022-09-13T06:49:20.197Z,100.00
2022-09-13T06:51:48.031Z,100.00
2022-09-13T06:54:15.781Z,100.00
2022-09-13T06:56:44.889Z,100.00
2022-09-13T06:59:12.676Z,100.00
2022-09-13T07:01:41.623Z,100.00
2022-09-13T07:04:11.429Z,100.00
2022-09-13T07:06:40.865Z,100.00
2022-09-13T07:09:10.604Z,100.00
2022-09-13T07:11:40.415Z,100.00
2022-09-13T07:14:09.880Z,100.00
2022-09-13T07:16:39.096Z,100.00
2022-09-13T07:19:08.641Z,100.00
2022-09-13T07:21:36.659Z,100.00
2022-09-13T07:24:05.476Z,100.00
2022-09-13T07:26:33.329Z,100.00
2022-09-13T07:29:02.536Z,100.00
2022-09-13T07:31:33.116Z,100.00
2022-09-13T07:34:02.905Z,100.00
2022-09-13T07:36:32.775Z,100.00
2022-09-13T07:39:01.847Z,100.00
2022-09-13T07:41:31.607Z,100.00
2022-09-13T07:44:00.909Z,96.97
2022-09-13T07:46:32.763Z,92.03
2022-09-13T07:49:01.229Z,82.33
2022-09-13T07:51:30.973Z,85.49
2022-09-13T07:54:00.319Z,85.74
2022-09-13T07:56:30.128Z,84.35
2022-09-13T07:59:00.850Z,84.40
2022-09-13T08:01:31.833Z,76.54
2022-09-13T08:04:01.628Z,81.67
2022-09-13T08:06:31.013Z,90.88
2022-09-13T08:08:59.364Z,79.51
2022-09-13T08:11:30.285Z,80.18
2022-09-13T08:13:58.545Z,71.06
2022-09-13T08:16:28.031Z,63.38
2022-09-13T08:18:59.347Z,63.52
2022-09-13T08:21:27.901Z,63.09
2022-09-13T08:23:56.840Z,61.35
2022-09-13T08:26:25.137Z,63.05
2022-09-13T08:28:57.407Z,60.31
2022-09-13T08:31:25.394Z,64.79
2022-09-13T08:33:53.409Z,66.46
2022-09-13T08:36:23.979Z,62.04
2022-09-13T08:38:52.880Z,60.19
2022-09-13T08:41:52.658Z,56.98
2022-09-13T08:44:27.066Z,58.78
2022-09-13T08:47:03.551Z,60.07
2022-09-13T08:49:35.614Z,62.35
2022-09-13T08:52:25.447Z,59.86
2022-09-13T08:54:58.117Z,60.66
2022-09-13T08:57:33.657Z,56.93
2022-09-13T09:00:07.965Z,56.15
2022-09-13T09:02:58.534Z,56.51
2022-09-13T09:05:30.287Z,58.71
2022-09-13T09:08:02.082Z,58.02
2022-09-13T09:10:33.834Z,55.07
2022-09-13T09:13:07.480Z,52.14
2022-09-13T09:15:40.288Z,56.35
2022-09-13T09:18:14.462Z,54.90
2022-09-13T09:21:10.478Z,58.57
2022-09-13T09:23:47.328Z,57.32
2022-09-13T09:26:17.722Z,53.24
2022-09-13T09:28:48.681Z,53.08
2022-09-13T09:31:23.448Z,56.77
2022-09-13T09:34:04.951Z,54.18
2022-09-13T09:36:40.322Z,54.07
2022-09-13T09:39:13.070Z,51.54
2022-09-13T09:41:41.110Z,52.15
2022-09-13T09:44:18.740Z,52.10
2022-09-13T09:46:51.153Z,53.07
2022-09-13T09:49:39.791Z,52.22
2022-09-13T09:52:11.260Z,50.25
2022-09-13T09:54:41.693Z,47.11
2022-09-13T09:57:09.943Z,49.28
2022-09-13T09:59:37.656Z,49.68
2022-09-13T10:02:17.229Z,48.85
2022-09-13T10:04:56.689Z,48.95
2022-09-13T10:07:29.178Z,48.64
2022-09-13T10:10:06.370Z,48.10
2022-09-13T10:12:36.691Z,48.03
2022-09-13T10:15:08.303Z,47.33
2022-09-13T10:17:36.925Z,46.56
2022-09-13T10:20:20.422Z,44.82
2022-09-13T10:23:12.308Z,46.02
2022-09-13T10:25:47.940Z,46.56
2022-09-13T10:28:20.275Z,45.40
2022-09-13T10:30:54.134Z,45.79
2022-09-13T10:33:31.130Z,43.99
2022-09-13T10:36:01.796Z,44.86
2022-09-13T10:38:33.195Z,41.48
2022-09-13T10:41:05.945Z,40.84
2022-09-13T10:43:34.674Z,41.69
2022-09-13T10:46:05.819Z,44.41
2022-09-13T10:48:46.362Z,46.19
2022-09-13T10:51:24.092Z,44.95
2022-09-13T10:53:52.229Z,44.96
2022-09-13T10:56:24.342Z,43.29
2022-09-13T10:58:52.156Z,41.06
2022-09-13T11:01:44.172Z,37.55
2022-09-13T11:04:43.384Z,40.12
2022-09-13T11:07:27.512Z,44.38
2022-09-13T11:10:03.117Z,40.52
2022-09-13T11:12:41.270Z,38.92
2022-09-13T11:15:21.599Z,41.96
2022-09-13T11:18:07.248Z,38.55
2022-09-13T11:20:46.073Z,39.61
2022-09-13T11:23:41.542Z,44.23
2022-09-13T11:26:25.962Z,44.61
2022-09-13T11:29:03.290Z,45.37
2022-09-13T11:31:42.921Z,42.68
2022-09-13T11:34:22.619Z,43.49
2022-09-13T11:37:04.352Z,39.30
2022-09-13T11:39:36.392Z,41.09
2022-09-13T11:42:19.106Z,42.30
2022-09-13T11:45:01.863Z,40.72
2022-09-13T11:47:41.475Z,41.59
2022-09-13T11:50:26.505Z,45.59
2022-09-13T11:53:06.649Z,44.93
2022-09-13T11:55:39.528Z,44.61
2022-09-13T11:58:14.224Z,43.94
2022-09-13T12:00:46.453Z,48.48
2022-09-13T12:03:21.807Z,47.69
2022-09-13T12:05:53.794Z,43.59
2022-09-13T12:08:25.432Z,47.66
2022-09-13T12:10:57.178Z,49.98
2022-09-13T12:13:28.095Z,42.88
2022-09-13T12:16:02.224Z,48.26
2022-09-13T12:18:35.505Z,43.74
2022-09-13T12:21:09.377Z,44.71
2022-09-13T12:23:40.770Z,42.86
2022-09-13T12:26:14.386Z,46.68
2022-09-13T12:28:45.808Z,42.31
2022-09-13T12:31:19.616Z,38.86
2022-09-13T12:33:55.897Z,41.09
2022-09-13T12:36:58.014Z,43.83
2022-09-13T12:39:42.762Z,42.51
2022-09-13T12:42:31.092Z,42.92
2022-09-13T12:45:21.846Z,49.06
2022-09-13T12:48:11.902Z,54.63
2022-09-13T12:50:50.682Z,60.09
2022-09-13T12:53:46.958Z,70.75
2022-09-13T12:56:31.131Z,69.61
2022-09-13T12:59:14.586Z,75.35
2022-09-13T13:01:47.505Z,79.48
2022-09-13T13:04:21.448Z,81.23
2022-09-13T13:06:52.005Z,82.13
2022-09-13T13:09:29.560Z,83.84
2022-09-13T13:11:59.631Z,84.83
2022-09-13T13:14:53.162Z,88.08
2022-09-13T13:17:52.015Z,91.18
2022-09-13T13:20:45.961Z,88.68
2022-09-13T13:23:28.782Z,86.07
2022-09-13T13:26:02.992Z,88.23
2022-09-13T13:28:51.938Z,100.00
2022-09-13T13:31:41.253Z,93.24
2022-09-13T13:34:31.744Z,100.00
2022-09-13T13:37:05.844Z,90.20
2022-09-13T13:39:36.900Z,93.93
2022-09-13T13:42:13.776Z,93.63
2022-09-13T13:45:17.721Z,87.13
2022-09-13T13:48:20.920Z,81.33
2022-09-13T13:51:15.535Z,87.81
2022-09-13T13:53:48.044Z,93.93
2022-09-13T13:56:30.703Z,100.00
2022-09-13T13:59:04.609Z,79.58
2022-09-13T14:01:36.546Z,96.75
2022-09-13T14:04:31.375Z,100.00
2022-09-13T14:07:18.971Z,93.46
2022-09-13T14:09:55.515Z,69.25
2022-09-13T14:12:36.071Z,73.84
2022-09-13T14:15:28.248Z,79.61
2022-09-13T14:18:40.196Z,68.28
2022-09-13T14:21:21.499Z,64.07
2022-09-13T14:23:49.212Z,68.27
2022-09-13T14:26:18.597Z,66.18
2022-09-13T14:28:46.412Z,68.24
2022-09-13T14:31:20.414Z,69.10
2022-09-13T14:33:49.024Z,67.58
2022-09-13T14:36:20.545Z,65.91
2022-09-13T14:38:55.082Z,66.53
2022-09-13T14:41:33.217Z,74.28
2022-09-13T14:44:23.776Z,72.85
2022-09-13T14:47:02.083Z,68.69
2022-09-13T14:49:33.354Z,72.40
2022-09-13T14:52:05.338Z,78.53
2022-09-13T14:54:38.809Z,70.81
2022-09-13T14:57:10.573Z,73.04
2022-09-13T14:59:43.326Z,73.04
2022-09-13T15:02:19.893Z,80.00
2022-09-13T15:04:51.328Z,77.03
2022-09-13T15:07:23.582Z,79.38
2022-09-13T15:09:56.319Z,96.78
2022-09-13T15:12:28.176Z,100.00
2022-09-13T15:15:14.503Z,100.00
2022-09-13T15:17:56.585Z,100.00
2022-09-13T15:20:26.259Z,100.00
2022-09-13T15:22:54.381Z,100.00
2022-09-13T15:25:26.333Z,100.00
2022-09-13T15:27:57.047Z,100.00
2022-09-13T15:30:28.387Z,100.00
2022-09-13T15:33:20.901Z,100.00
2022-09-13T15:35:49.025Z,100.00
2022-09-13T15:38:25.893Z,100.00
2022-09-13T15:41:03.366Z,100.00
2022-09-13T15:43:32.507Z,100.00
2022-09-13T15:46:01.621Z,100.00
2022-09-13T15:48:31.035Z,100.00
2022-09-13T15:51:13.152Z,100.00
2022-09-13T15:53:43.194Z,100.00
2022-09-13T15:56:15.787Z,100.00
2022-09-13T15:58:44.983Z,100.00
2022-09-13T16:01:14.481Z,100.00
2022-09-13T16:03:42.569Z,100.00
2022-09-13T16:06:11.197Z,100.00
2022-09-13T16:08:39.941Z,100.00
2022-09-13T16:11:08.417Z,100.00
2022-09-13T16:13:37.140Z,100.00
2022-09-13T16:16:06.526Z,100.00
2022-09-13T16:18:34.258Z,100.00
2022-09-13T16:21:02.084Z,100.00
2022-09-13T16:23:29.814Z,100.00
2022-09-13T16:25:59.662Z,100.00
2022-09-13T16:28:27.967Z,100.00
2022-09-13T16:30:55.840Z,100.00
2022-09-13T16:33:24.949Z,100.00
2022-09-13T16:35:52.676Z,100.00
2022-09-13T16:38:20.400Z,100.00
2022-09-13T16:40:49.027Z,100.00
2022-09-13T16:43:16.727Z,100.00
2022-09-13T16:45:45.357Z,100.00
2022-09-13T16:48:13.155Z,100.00
2022-09-13T16:50:42.859Z,100.00
2022-09-13T16:53:10.652Z,100.00
2022-09-13T16:55:38.415Z,100.00
2022-09-13T16:58:06.251Z,100.00
2022-09-13T17:00:33.972Z,100.00
2022-09-13T17:03:01.721Z,100.00
2022-09-13T17:05:29.748Z,100.00
2022-09-13T17:07:59.020Z,100.00
2022-09-13T17:10:26.952Z,100.00
2022-09-13T17:12:54.703Z,100.00
2022-09-13T17:15:22.425Z,100.00
2022-09-13T17:17:50.094Z,100.00
2022-09-13T17:20:17.856Z,100.00
2022-09-13T17:22:45.573Z,100.00
2022-09-13T17:25:16.065Z,100.00
2022-09-13T17:27:43.906Z,100.00
2022-09-13T17:30:12.909Z,100.00
2022-09-13T17:32:40.692Z,100.00
2022-09-13T17:35:09.096Z,100.00
2022-09-13T17:37:36.856Z,100.00
2022-09-13T17:40:05.114Z,100.00
2022-09-13T17:42:34.260Z,100.00
2022-09-13T17:45:01.973Z,100.00
2022-09-13T17:47:29.637Z,100.00
2022-09-13T17:49:59.033Z,100.00
2022-09-13T17:52:26.727Z,100.00
2022-09-13T17:54:54.436Z,100.00
2022-09-13T17:57:22.178Z,100.00
2022-09-13T17:59:52.223Z,100.00
2022-09-13T18:02:21.783Z,100.00
2022-09-13T18:04:51.553Z,100.00
2022-09-13T18:07:19.480Z,100.00
2022-09-13T18:09:47.312Z,100.00
2022-09-13T18:12:14.990Z,100.00
2022-09-13T18:14:42.697Z,100.00
2022-09-13T18:17:13.247Z,100.00
2022-09-13T18:19:46.393Z,100.00
2022-09-13T18:22:14.758Z,100.00
2022-09-13T18:24:42.636Z,100.00
2022-09-13T18:27:10.346Z,100.00
2022-09-13T18:29:38.059Z,100.00
2022-09-13T18:32:05.941Z,100.00
2022-09-13T18:34:34.996Z,100.00
2022-09-13T18:37:02.711Z,100.00
2022-09-13T18:39:30.499Z,100.00
2022-09-13T18:41:58.296Z,100.00
2022-09-13T18:44:25.994Z,100.00
2022-09-13T18:46:54.301Z,100.00
2022-09-13T18:49:22.008Z,100.00
2022-09-13T18:51:51.139Z,100.00
2022-09-13T18:54:19.755Z,100.00
2022-09-13T18:56:48.734Z,100.00
2022-09-13T18:59:16.411Z,100.00
2022-09-13T19:01:45.292Z,100.00
2022-09-13T19:04:15.229Z,100.00
2022-09-13T19:06:44.345Z,100.00
2022-09-13T19:09:14.474Z,100.00
2022-09-13T19:11:48.244Z,100.00
2022-09-13T19:14:18.300Z,100.00
2022-09-13T19:16:46.114Z,100.00
2022-09-13T19:19:14.017Z,100.00
2022-09-13T19:21:42.228Z,100.00
2022-09-13T19:24:17.752Z,100.00
2022-09-13T19:26:50.555Z,100.00
2022-09-13T19:29:20.796Z,100.00
2022-09-13T19:31:49.978Z,100.00
2022-09-13T19:34:18.641Z,100.00
2022-09-13T19:36:47.280Z,100.00
2022-09-13T19:39:15.141Z,100.00
2022-09-13T19:41:43.066Z,100.00
2022-09-13T19:44:13.776Z,100.00
2022-09-13T19:46:42.518Z,100.00
2022-09-13T19:49:13.741Z,100.00
2022-09-13T19:51:42.863Z,100.00
2022-09-13T19:54:13.685Z,100.00
2022-09-13T19:56:43.331Z,100.00
2022-09-13T19:59:15.106Z,100.00
2022-09-13T20:01:44.893Z,100.00
2022-09-13T20:04:14.359Z,100.00
2022-09-13T20:06:44.152Z,100.00
2022-09-13T20:09:13.015Z,100.00
2022-09-13T20:11:44.962Z,100.00
2022-09-13T20:14:14.471Z,100.00
2022-09-13T20:16:43.784Z,100.00
2022-09-13T20:19:36.786Z,100.00
2022-09-13T20:22:03.234Z,100.00
2022-09-13T20:24:30.959Z,100.00
2022-09-13T20:26:58.627Z,100.00
2022-09-13T20:29:27.674Z,100.00
2022-09-13T20:31:55.580Z,100.00
2022-09-13T20:34:23.439Z,100.00
2022-09-13T20:36:51.161Z,100.00
2022-09-13T20:39:19.033Z,100.00
2022-09-13T20:41:49.268Z,100.00
2022-09-13T20:44:17.003Z,100.00
2022-09-13T20:46:46.203Z,100.00
2022-09-13T20:49:13.971Z,100.00
2022-09-13T20:51:41.753Z,100.00
2022-09-13T20:54:11.919Z,100.00
2022-09-13T20:56:40.351Z,100.00
2022-09-13T20:59:08.182Z,100.00
2022-09-13T21:01:36.342Z,100.00
2022-09-13T21:04:06.116Z,100.00
2022-09-13T21:06:39.593Z,100.00
2022-09-13T21:09:09.343Z,100.00
2022-09-13T21:11:38.561Z,100.00
2022-09-13T21:14:08.730Z,100.00
2022-09-13T21:16:39.004Z,100.00
2022-09-13T21:19:09.116Z,100.00
2022-09-13T21:21:38.363Z,100.00
2022-09-13T21:24:09.652Z,100.00
2022-09-13T21:26:39.611Z,100.00
2022-09-13T21:29:07.407Z,100.00
2022-09-13T21:31:35.138Z,100.00
2022-09-13T21:34:05.978Z,100.00
2022-09-13T21:36:37.196Z,100.00
2022-09-13T21:39:05.944Z,100.00
2022-09-13T21:41:33.868Z,100.00
2022-09-13T21:44:01.914Z,100.00
2022-09-13T21:46:31.891Z,100.00
2022-09-13T21:49:02.228Z,100.00
2022-09-13T21:51:33.038Z,100.00
2022-09-13T21:54:05.514Z,100.00
2022-09-13T21:56:35.183Z,100.00
2022-09-13T21:59:04.953Z,100.00
2022-09-13T22:01:35.795Z,100.00
2022-09-13T22:04:03.806Z,100.00
2022-09-13T22:06:34.471Z,100.00
2022-09-13T22:09:06.355Z,100.00
2022-09-13T22:11:38.467Z,100.00
2022-09-13T22:14:07.313Z,100.00
2022-09-13T22:16:37.258Z,100.00
2022-09-13T22:19:09.235Z,100.00
2022-09-13T22:21:37.937Z,100.00
2022-09-13T22:24:08.837Z,100.00
2022-09-13T22:26:39.415Z,100.00
2022-09-13T22:29:08.219Z,100.00
2022-09-13T22:31:38.344Z,100.00
2022-09-13T22:34:06.897Z,100.00
2022-09-13T22:36:34.721Z,100.00
2022-09-13T22:39:02.458Z,100.00
2022-09-13T22:41:33.653Z,100.00
2022-09-13T22:44:03.122Z,100.00
2022-09-13T22:46:33.131Z,100.00
2022-09-13T22:49:01.479Z,100.00
2022-09-13T22:51:29.518Z,100.00
2022-09-13T22:53:57.918Z,100.00
2022-09-13T22:56:27.180Z,100.00
2022-09-13T22:58:57.854Z,100.00
2022-09-13T23:01:27.029Z,100.00
2022-09-13T23:03:55.186Z,100.00
2022-09-13T23:06:25.363Z,100.00
2022-09-13T23:08:54.755Z,100.00
2022-09-13T23:11:24.427Z,100.00
2022-09-13T23:13:56.553Z,100.00
2022-09-13T23:16:27.378Z,100.00
2022-09-13T23:18:56.283Z,100.00
2022-09-13T23:21:28.237Z,100.00
2022-09-13T23:23:56.393Z,100.00
2022-09-13T23:26:26.763Z,100.00
2022-09-13T23:28:56.699Z,100.00
2022-09-13T23:31:27.975Z,100.00
2022-09-13T23:33:58.911Z,100.00
2022-09-13T23:36:29.245Z,100.00
2022-09-13T23:38:59.172Z,100.00
2022-09-13T23:41:27.942Z,100.00
2022-09-13T23:43:55.621Z,100.00
2022-09-13T23:46:24.933Z,100.00
2022-09-13T23:48:52.688Z,100.00
2022-09-13T23:51:23.201Z,100.00
2022-09-13T23:53:51.992Z,100.00
2022-09-13T23:56:20.465Z,100.00
2022-09-13T23:58:48.159Z,100.00
